Time;durP1;ratioP1;P1;durP2;ratioP2;P2;SDS_P1;SDS_P2;PMS_P1;PMS_P2;Temp;Humidity;BMP_temperature;BMP_pressure;BME280_temperature;BME280_humidity;BME280_pressure;Samples;Min_cycle;Max_cycle;Signal;HPM_P1;HPM_P2
2023/04/14 00:03:42;;;;;;;5.03;2.90;;;;;;;25.28;34.57;100960.06;20990794;28;20573;-69
2023/04/14 00:13:44;;;;;;;3.40;3.05;;;;;;;25.16;34.46;100948.56;20991229;28;20045;-70
2023/04/14 00:23:48;;;;;;;5.00;3.13;;;;;;;25.17;34.78;100961.41;20990493;28;20044;-70
2023/04/14 00:33:49;;;;;;;4.13;3.60;;;;;;;25.32;34.59;100991.91;20989830;28;20154;-70
2023/04/14 00:43:53;;;;;;;6.57;3.35;;;;;;;25.34;34.96;101000.84;20992612;28;20044;-70
2023/04/14 00:53:59;;;;;;;4.45;3.38;;;;;;;25.31;34.64;101021.06;21005326;28;20040;-70
2023/04/14 01:04:01;;;;;;;4.00;3.10;;;;;;;25.31;34.81;101032.28;21004156;28;20568;-70
2023/04/14 01:14:05;;;;;;;3.78;2.90;;;;;;;25.40;34.97;101037.16;21004157;28;20533;-70
2023/04/14 01:24:15;;;;;;;3.78;3.25;;;;;;;25.38;34.74;101034.66;20963101;28;20041;-70
2023/04/14 01:35:04;;;;;;;8.35;4.35;;;;;;;25.21;34.89;101026.03;20931749;28;20055;-71
2023/04/14 01:45:10;;;;;;;7.18;3.90;;;;;;;25.39;34.89;101047.53;21001503;28;20426;-71
2023/04/14 01:55:16;;;;;;;5.90;3.72;;;;;;;25.40;34.77;101059.56;20999482;28;20040;-71
2023/04/14 02:05:18;;;;;;;5.18;3.53;;;;;;;25.45;34.78;101051.06;20999550;28;20032;-72
2023/04/14 02:15:23;;;;;;;4.07;3.67;;;;;;;25.38;34.82;101051.47;20952255;28;20439;-70
2023/04/14 02:25:36;;;;;;;3.90;3.38;;;;;;;25.42;34.78;101060.09;20916477;28;20033;-70
2023/04/14 02:35:45;;;;;;;4.95;3.20;;;;;;;25.46;34.69;101075.97;20995198;28;20044;-71
2023/04/14 02:45:50;;;;;;;5.05;3.70;;;;;;;25.43;34.68;101070.16;20992280;28;20089;-71
2023/04/14 02:55:57;;;;;;;5.32;3.70;;;;;;;25.47;34.88;101071.19;20979219;28;20075;-70
2023/04/14 03:05:59;;;;;;;5.20;3.70;;;;;;;25.45;34.96;101073.50;21009830;28;20037;-71
2023/04/14 03:16:02;;;;;;;5.35;3.25;;;;;;;25.45;35.30;101076.28;20992389;28;20412;-70
2023/04/14 03:26:04;;;;;;;6.47;3.88;;;;;;;25.31;34.93;101065.06;20975463;28;20094;-70
2023/04/14 03:36:07;;;;;;;4.43;3.38;;;;;;;25.32;35.30;101081.53;20994124;28;20037;-69
2023/04/14 03:46:09;;;;;;;6.28;3.67;;;;;;;25.39;35.09;101097.13;20985029;28;20028;-71
2023/04/14 03:56:13;;;;;;;4.57;3.67;;;;;;;25.36;34.62;101081.78;20966193;28;20391;-68
2023/04/14 04:06:20;;;;;;;4.85;3.30;;;;;;;25.35;34.51;101097.75;20976686;28;20032;-67
2023/04/14 04:16:26;;;;;;;4.55;3.75;;;;;;;25.33;34.64;101104.78;20965711;28;20045;-67
2023/04/14 04:26:29;;;;;;;7.38;3.63;;;;;;;25.05;34.43;101067.44;20996052;28;20033;-68
2023/04/14 04:36:31;;;;;;;6.68;3.92;;;;;;;25.37;35.04;101100.22;21040873;28;20043;-68
2023/04/14 04:46:54;;;;;;;7.57;4.45;;;;;;;25.33;34.87;101111.22;20995389;28;20098;-69
2023/04/14 04:56:58;;;;;;;6.68;4.32;;;;;;;25.47;35.02;101116.03;21001466;28;20541;-68
2023/04/14 05:07:01;;;;;;;5.70;4.25;;;;;;;25.25;34.82;101069.09;21012970;28;20076;-68
2023/04/14 05:17:02;;;;;;;6.15;4.13;;;;;;;25.48;34.85;101089.69;20995004;28;20037;-67
2023/04/14 05:27:04;;;;;;;5.90;4.60;;;;;;;25.51;35.15;101101.09;21013766;28;20044;-66
2023/04/14 05:37:05;;;;;;;9.73;5.20;;;;;;;25.52;35.88;101097.16;21000769;28;20457;-66
2023/04/14 05:47:07;;;;;;;10.00;5.03;;;;;;;25.33;35.82;101076.78;20993819;28;20110;-65
2023/04/14 05:57:08;;;;;;;5.60;4.53;;;;;;;25.52;35.81;101097.16;20996193;28;20468;-66
2023/04/14 06:07:09;;;;;;;5.82;4.72;;;;;;;25.48;35.71;101089.69;20996744;28;20029;-66
2023/04/14 06:17:11;;;;;;;7.90;4.50;;;;;;;25.40;35.86;101077.22;20991582;28;20093;-66
2023/04/14 06:27:15;;;;;;;8.98;4.97;;;;;;;25.51;35.88;101077.84;20989069;28;20041;-66
2023/04/14 06:37:17;;;;;;;8.07;5.10;;;;;;;25.52;36.02;101051.47;20990063;28;20056;-68
2023/04/14 06:47:23;;;;;;;4.78;4.20;;;;;;;25.34;36.00;101022.44;20990116;28;20048;-69
2023/04/14 06:57:25;;;;;;;6.00;4.40;;;;;;;25.48;36.22;101039.25;20986664;28;20033;-65
2023/04/14 07:07:26;;;;;;;7.38;4.78;;;;;;;25.56;36.10;101046.91;20989853;28;20070;-66
2023/04/14 07:17:30;;;;;;;4.50;4.10;;;;;;;25.48;36.13;101044.88;20993730;28;20106;-66
2023/04/14 07:27:32;;;;;;;5.90;4.38;;;;;;;25.49;36.21;101046.53;20993695;28;20040;-66
2023/04/14 07:37:33;;;;;;;8.38;4.63;;;;;;;25.51;36.11;101033.00;20987259;28;20045;-66
2023/04/14 07:47:37;;;;;;;6.25;4.13;;;;;;;25.44;36.27;101027.84;20991999;28;20044;-66
2023/04/14 07:57:40;;;;;;;5.07;4.00;;;;;;;25.42;36.04;101040.47;20989322;28;20070;-66
2023/04/14 08:07:45;;;;;;;8.10;4.28;;;;;;;25.39;36.26;101035.50;20992470;28;20049;-66
2023/04/14 08:17:46;;;;;;;5.00;3.92;;;;;;;25.60;35.86;101070.38;20928057;28;20102;-66
2023/04/14 08:27:47;;;;;;;6.03;4.13;;;;;;;25.60;36.13;101081.59;20957189;28;20053;-66
2023/04/14 08:37:49;;;;;;;5.72;3.83;;;;;;;25.54;36.41;101071.63;20991103;28;20071;-67
2023/04/14 08:47:54;;;;;;;5.32;4.28;;;;;;;25.55;36.38;101085.31;20988390;28;20036;-66
2023/04/14 08:57:57;;;;;;;4.20;3.65;;;;;;;25.57;36.28;101088.66;20988169;28;20056;-67
2023/04/14 09:07:59;;;;;;;5.10;3.55;;;;;;;25.54;36.10;101089.28;20996511;28;20429;-66
2023/04/14 09:18:01;;;;;;;4.80;3.40;;;;;;;25.45;36.34;101090.28;21003199;28;20040;-66
2023/04/14 09:28:02;;;;;;;4.07;3.45;;;;;;;25.59;36.25;101114.38;21002995;28;20059;-66
2023/04/14 09:38:08;;;;;;;6.00;4.20;;;;;;;25.55;36.24;101106.91;21003012;28;20059;-66
2023/04/14 09:48:11;;;;;;;4.95;4.15;;;;;;;25.54;36.41;101117.28;21001680;28;20036;-67
2023/04/14 09:58:20;;;;;;;4.13;3.30;;;;;;;25.57;36.52;101130.69;21000010;28;20468;-67
2023/04/14 10:08:21;;;;;;;4.38;3.53;;;;;;;25.57;36.61;101149.50;20999439;28;20036;-65
2023/04/14 10:18:22;;;;;;;4.10;3.58;;;;;;;25.57;36.51;101143.88;20982291;28;20072;-67
2023/04/14 10:28:25;;;;;;;4.93;3.10;;;;;;;25.54;36.19;101155.69;20906732;28;20045;-66
2023/04/14 10:38:43;;;;;;;4.20;3.55;;;;;;;25.52;36.50;101171.97;20912772;28;20056;-66
2023/04/14 10:48:48;;;;;;;5.43;3.87;;;;;;;25.54;36.27;101183.72;20905073;28;20041;-66
2023/04/14 10:58:57;;;;;;;4.90;3.40;;;;;;;25.53;36.31;101193.28;20996066;28;20044;-66
2023/04/14 11:08:58;;;;;;;4.35;3.22;;;;;;;25.53;36.10;101208.09;20995968;28;20025;-69
2023/04/14 11:19:03;;;;;;;4.10;3.08;;;;;;;25.54;36.29;101206.13;20994067;28;20091;-67
2023/04/14 11:29:09;;;;;;;3.50;3.17;;;;;;;25.57;36.18;101216.75;20993813;28;20032;-65
2023/04/14 11:39:14;;;;;;;3.60;3.30;;;;;;;25.54;36.29;101228.56;20991201;28;20464;-65
2023/04/14 11:49:16;;;;;;;4.20;3.60;;;;;;;25.52;36.73;101228.00;20973218;28;20036;-65
2023/04/14 11:59:17;;;;;;;4.88;3.40;;;;;;;25.53;36.85;101221.28;20990968;28;20495;-68
2023/04/14 12:09:21;;;;;;;5.93;3.72;;;;;;;25.55;36.71;101230.22;20988919;28;20383;-71
2023/04/14 12:19:22;;;;;;;7.75;3.90;;;;;;;25.53;36.90;101235.28;20987557;28;20399;-72
2023/04/14 12:29:24;;;;;;;13.93;5.47;;;;;;;25.44;36.86;101235.16;20984955;28;20049;-71
2023/04/14 12:39:27;;;;;;;8.82;5.65;;;;;;;25.39;36.26;101220.41;20991574;28;20098;-71
2023/04/14 12:49:34;;;;;;;7.00;6.05;;;;;;;25.51;36.27;101234.75;20996663;28;20044;-72
2023/04/14 12:59:38;;;;;;;;;;;;;;;25.55;35.93;101224.59;21003837;28;20086;-72
2023/04/14 13:09:41;;;;;;;11.88;6.15;;;;;;;25.42;36.51;101228.19;21009437;28;20079;-77
2023/04/14 13:19:45;;;;;;;12.23;6.50;;;;;;;25.42;36.52;101236.59;20999214;28;20449;-75
2023/04/14 13:29:49;;;;;;;9.18;6.30;;;;;;;25.33;36.51;101234.47;21003117;28;20056;-75
2023/04/14 13:39:53;;;;;;;10.02;6.25;;;;;;;25.22;36.54;101199.34;21002176;28;20062;-76
2023/04/14 13:49:57;;;;;;;9.48;5.93;;;;;;;25.40;36.61;101222.88;21000802;28;20066;-75
2023/04/14 13:59:58;;;;;;;9.30;6.30;;;;;;;25.40;36.39;101219.25;20920870;28;20025;-75
2023/04/14 14:10:00;;;;;;;8.98;6.45;;;;;;;25.40;36.42;101205.25;20918107;28;20028;-76
2023/04/14 14:20:02;;;;;;;9.65;6.38;;;;;;;25.38;36.74;101201.91;20916243;28;20400;-75
2023/04/14 14:30:04;;;;;;;8.93;6.30;;;;;;;25.47;36.37;101181.28;20916102;28;20028;-75
2023/04/14 14:40:06;;;;;;;7.45;5.53;;;;;;;25.50;36.75;101185.47;20916516;28;20033;-76
2023/04/14 14:50:11;;;;;;;8.07;5.35;;;;;;;25.49;36.44;101170.63;20914880;28;20022;-75
2023/04/14 15:00:13;;;;;;;7.50;5.57;;;;;;;25.50;36.22;101172.28;20913969;28;20103;-75
2023/04/14 15:10:14;;;;;;;8.13;6.00;;;;;;;25.58;36.15;101179.16;20913518;28;20029;-75
2023/04/14 15:20:16;;;;;;;8.38;6.13;;;;;;;25.37;36.12;101139.44;20925040;28;20083;-76
2023/04/14 15:30:20;;;;;;;8.98;5.68;;;;;;;25.67;36.26;101171.72;20911777;28;20025;-75
2023/04/14 15:40:21;;;;;;;9.90;5.68;;;;;;;25.59;35.78;101136.81;20911120;28;20438;-72
2023/04/14 15:50:23;;;;;;;8.88;6.07;;;;;;;25.72;35.99;101152.00;20911508;28;20037;-73
2023/04/14 16:00:24;;;;;;;7.25;5.82;;;;;;;25.64;35.73;101132.25;20912606;28;20075;-74
2023/04/14 16:10:26;;;;;;;6.18;5.45;;;;;;;25.68;35.53;101134.13;20909625;28;20095;-75
2023/04/14 16:20:27;;;;;;;8.00;5.57;;;;;;;25.63;35.66;101105.38;20922773;28;20041;-76
2023/04/14 16:30:28;;;;;;;8.77;5.57;;;;;;;25.71;35.53;101111.09;20926082;28;20072;-76
2023/04/14 16:40:30;;;;;;;8.70;5.68;;;;;;;25.91;35.17;101134.31;20926634;28;20037;-76
2023/04/14 16:50:31;;;;;;;10.57;5.72;;;;;;;25.96;35.32;101120.19;20930022;28;20041;-76
2023/04/14 17:00:33;;;;;;;8.98;6.22;;;;;;;25.85;35.36;101095.16;20923567;28;20458;-77
2023/04/14 17:10:35;;;;;;;5.85;5.20;;;;;;;26.01;35.15;101118.09;20923497;28;20033;-75
2023/04/14 17:20:45;;;;;;;8.50;5.75;;;;;;;26.05;35.33;101118.31;20921050;28;20056;-76
2023/04/14 17:30:46;;;;;;;8.65;5.15;;;;;;;26.06;35.17;101108.75;20971261;28;20052;-76
2023/04/14 17:40:49;;;;;;;10.00;5.78;;;;;;;26.08;34.80;101086.84;20962921;28;20037;-76
2023/04/14 17:50:51;;;;;;;6.57;5.28;;;;;;;25.97;34.62;101046.13;20919508;28;20546;-77
2023/04/14 18:00:52;;;;;;;7.05;6.25;;;;;;;26.09;35.11;101071.69;20918964;28;20045;-76
2023/04/14 18:10:57;;;;;;;6.50;4.93;;;;;;;26.04;34.56;101054.97;20918196;28;20048;-77
2023/04/14 18:20:59;;;;;;;8.30;5.60;;;;;;;25.96;34.74;101022.88;20917192;28;20080;-77
2023/04/14 18:31:00;;;;;;;6.57;5.30;;;;;;;26.19;34.33;101043.41;20917802;28;20033;-77
2023/04/14 18:41:03;;;;;;;5.78;4.78;;;;;;;26.18;34.03;101036.13;20915564;28;20103;-77
2023/04/14 18:51:06;;;;;;;5.32;4.80;;;;;;;26.24;34.20;101029.25;20914892;28;20102;-76
2023/04/14 19:01:11;;;;;;;6.82;4.82;;;;;;;26.13;34.02;101016.63;20916395;28;20549;-74
2023/04/14 19:11:15;;;;;;;5.93;4.32;;;;;;;26.27;33.78;101011.81;20915461;28;20380;-76
2023/04/14 19:21:17;;;;;;;7.18;4.38;;;;;;;26.18;33.68;100974.44;20912294;28;20551;-76
2023/04/14 19:31:20;;;;;;;5.63;4.10;;;;;;;26.26;33.58;100993.31;20911889;28;20549;-76
2023/04/14 19:41:21;;;;;;;5.32;3.75;;;;;;;26.24;33.20;100975.97;20956844;28;20683;-76
2023/04/14 19:51:26;;;;;;;5.53;4.15;;;;;;;26.11;33.27;100940.38;20993515;28;20028;-77
2023/04/14 20:01:31;;;;;;;4.18;3.78;;;;;;;26.29;33.05;100961.81;20995553;28;20442;-78
2023/04/14 20:11:32;;;;;;;4.32;3.90;;;;;;;26.29;33.05;100967.41;20979007;28;20052;-77
2023/04/14 20:21:33;;;;;;;3.83;3.40;;;;;;;26.23;32.95;100953.84;20972363;28;20094;-75
2023/04/14 20:31:35;;;;;;;5.20;3.47;;;;;;;26.11;32.50;100929.16;20985342;28;20066;-76
2023/04/14 20:41:37;;;;;;;3.88;3.45;;;;;;;26.14;32.48;100922.09;20945496;28;20037;-75
2023/04/14 20:51:38;;;;;;;6.55;3.67;;;;;;;26.32;31.90;100947.16;20986379;28;20041;-76
2023/04/14 21:01:45;;;;;;;3.88;3.58;;;;;;;26.32;32.01;100947.16;20988658;28;20049;-76
2023/04/14 21:11:49;;;;;;;3.67;3.37;;;;;;;26.28;32.42;100928.47;20994388;28;20032;-78
2023/04/14 21:21:50;;;;;;;4.40;3.35;;;;;;;26.23;32.45;100926.63;21002712;28;20062;-78
2023/04/14 21:31:52;;;;;;;8.25;3.28;;;;;;;26.32;32.37;100944.34;20997627;28;20053;-77
2023/04/14 21:41:56;;;;;;;4.63;3.58;;;;;;;26.14;32.27;100905.25;21002930;28;20541;-77
2023/04/14 21:51:58;;;;;;;6.50;3.35;;;;;;;26.26;32.16;100925.16;20999175;28;20161;-76
2023/04/14 22:01:59;;;;;;;7.47;3.08;;;;;;;26.34;32.39;100949.63;20972646;28;20048;-76
2023/04/14 22:12:02;;;;;;;8.48;3.50;;;;;;;26.30;32.41;100949.47;21037668;28;20040;-66
2023/04/14 22:22:03;;;;;;;6.18;3.08;;;;;;;26.35;32.16;100966.16;21081956;28;20047;-67
2023/04/14 22:32:06;;;;;;;7.75;3.60;;;;;;;26.28;32.42;100948.94;21076546;28;20106;-67
2023/04/14 22:42:10;;;;;;;4.10;3.22;;;;;;;26.36;32.47;100967.81;20994869;28;20484;-66
2023/04/14 22:52:12;;;;;;;5.22;3.85;;;;;;;26.38;32.62;100972.28;20997599;28;20540;-68
2023/04/14 23:02:13;;;;;;;5.25;3.60;;;;;;;26.37;32.74;100968.66;20976976;28;20044;-67
2023/04/14 23:12:14;;;;;;;21.45;4.90;;;;;;;26.36;32.66;100978.22;20994651;28;20480;-67
2023/04/14 23:22:19;;;;;;;30.65;4.95;;;;;;;26.29;32.90;100960.97;20945632;28;20457;-67
2023/04/14 23:32:23;;;;;;;17.83;4.15;;;;;;;26.31;32.63;100973.56;20974998;28;20041;-67
2023/04/14 23:42:24;;;;;;;6.07;3.72;;;;;;;26.32;32.63;100980.81;20976106;28;20052;-67
2023/04/14 23:52:28;;;;;;;7.00;4.10;;;;;;;26.36;32.62;100993.06;20995825;28;20059;-67
